createdAt,value
2016-12-25T00:00:04.965Z,1024.06
2016-12-25T00:05:04.340Z,1024.03
2016-12-25T00:10:05.015Z,1024.01
2016-12-25T00:15:04.707Z,1023.89
2016-12-25T00:20:04.868Z,1023.76
2016-12-25T00:25:05.167Z,1023.91
2016-12-25T00:30:04.649Z,1023.73
2016-12-25T00:35:04.720Z,1023.73
2016-12-25T00:40:04.587Z,1023.8
2016-12-25T00:45:04.648Z,1023.78
2016-12-25T00:50:04.825Z,1023.68
2016-12-25T00:55:04.994Z,1023.79
2016-12-25T01:00:04.924Z,1023.78
2016-12-25T01:05:05.235Z,1023.62
2016-12-25T01:10:05.048Z,1023.66
2016-12-25T01:15:05.066Z,1023.44
2016-12-25T01:20:04.502Z,1023.48
2016-12-25T01:25:04.730Z,1023.41
2016-12-25T01:30:04.748Z,1023.33
2016-12-25T01:35:05.140Z,1023.33
2016-12-25T01:40:04.339Z,1023.27
2016-12-25T01:45:04.829Z,1023.35
2016-12-25T01:50:05.037Z,1023.21
2016-12-25T01:55:05.010Z,1023.27
2016-12-25T02:00:05.003Z,1023.28
2016-12-25T02:05:05.130Z,1023.4
2016-12-25T02:10:04.839Z,1023.36
2016-12-25T02:15:05.030Z,1023.24
2016-12-25T02:20:04.326Z,1022.96
2016-12-25T02:25:04.397Z,1023.02
2016-12-25T02:30:05.226Z,1023.14
2016-12-25T02:35:05.050Z,1023.08
2016-12-25T02:40:04.637Z,1023.09
2016-12-25T02:45:04.441Z,1023.16
2016-12-25T02:50:04.659Z,1022.95
2016-12-25T02:55:04.713Z,1022.81
2016-12-25T03:00:05.161Z,1022.81
2016-12-25T03:05:06.706Z,1022.88
2016-12-25T03:10:05.115Z,1022.76
2016-12-25T03:15:05.278Z,1022.67
2016-12-25T03:20:04.512Z,1022.59
2016-12-25T03:25:04.579Z,1022.86
2016-12-25T03:30:04.860Z,1022.79
2016-12-25T03:35:04.831Z,1022.46
2016-12-25T03:40:04.933Z,1022.57
2016-12-25T03:45:04.627Z,1022.47
2016-12-25T03:50:04.867Z,1022.3
2016-12-25T03:55:04.958Z,1022.31
2016-12-25T04:00:04.801Z,1022.27
2016-12-25T04:05:05.008Z,1022.31
2016-12-25T04:10:04.918Z,1022.21
2016-12-25T04:15:04.543Z,1022.28
2016-12-25T04:20:04.615Z,1022.08
2016-12-25T04:25:04.358Z,1022.03
2016-12-25T04:30:04.389Z,1022.05
2016-12-25T04:35:05.114Z,1022.09
2016-12-25T04:40:04.404Z,1022.14
2016-12-25T04:45:04.425Z,1022.32
2016-12-25T04:50:05.046Z,1022.2
2016-12-25T04:55:05.081Z,1022.17
2016-12-25T05:00:05.033Z,1021.93
2016-12-25T05:05:04.975Z,1021.83
2016-12-25T05:10:04.482Z,1021.79
2016-12-25T05:15:04.443Z,1021.76
2016-12-25T05:20:05.017Z,1021.75
2016-12-25T05:25:05.320Z,1021.68
2016-12-25T05:30:04.443Z,1021.66
2016-12-25T05:35:04.674Z,1021.47
2016-12-25T05:40:04.994Z,1021.51
2016-12-25T05:45:05.008Z,1021.46
2016-12-25T05:50:05.277Z,1021.44
2016-12-25T05:55:04.646Z,1021.46
2016-12-25T06:00:04.838Z,1021.6
2016-12-25T06:05:05.023Z,1021.55
2016-12-25T06:10:04.510Z,1021.49
2016-12-25T06:15:04.723Z,1021.55
2016-12-25T06:20:05.231Z,1021.36
2016-12-25T06:25:05.179Z,1021.36
2016-12-25T06:30:04.379Z,1021.42
2016-12-25T06:35:05.380Z,1021.48
2016-12-25T06:40:05.036Z,1021.57
2016-12-25T06:45:05.165Z,1021.52
2016-12-25T06:50:05.087Z,1021.33
2016-12-25T06:55:05.167Z,1021.4
2016-12-25T07:00:04.599Z,1021.35
2016-12-25T07:05:04.780Z,1021.44
2016-12-25T07:10:05.013Z,1021.48
2016-12-25T07:15:04.377Z,1021.44
2016-12-25T07:20:05.193Z,1021.45
2016-12-25T07:25:04.543Z,1021.33
2016-12-25T07:30:04.344Z,1021.59
2016-12-25T07:35:04.553Z,1021.66
2016-12-25T07:40:05.053Z,1021.69
2016-12-25T07:45:05.007Z,1021.72
2016-12-25T07:50:05.211Z,1021.87
2016-12-25T07:55:05.044Z,1021.94
2016-12-25T08:00:04.176Z,1021.9
2016-12-25T08:05:04.399Z,1022.04
2016-12-25T08:10:04.627Z,1022.16
2016-12-25T08:15:04.523Z,1022.08
2016-12-25T08:20:04.507Z,1022.07
2016-12-25T08:25:04.488Z,1022.19
2016-12-25T08:30:04.953Z,1022.23
2016-12-25T08:35:04.904Z,1022.26
2016-12-25T08:40:04.277Z,1022.27
2016-12-25T08:45:05.064Z,1022.26
2016-12-25T08:50:04.852Z,1022.24
2016-12-25T08:55:04.902Z,1022.19
2016-12-25T09:00:04.601Z,1022.16
2016-12-25T09:05:04.516Z,1022.14
2016-12-25T09:10:04.362Z,1022.14
2016-12-25T09:15:05.324Z,1022.24
2016-12-25T09:20:04.964Z,1022.28
2016-12-25T09:25:04.822Z,1022.4
2016-12-25T09:30:04.829Z,1022.39
2016-12-25T09:35:04.426Z,1022.32
2016-12-25T09:40:04.859Z,1022.28
2016-12-25T09:45:04.198Z,1022.33
2016-12-25T09:50:04.685Z,1022.38
2016-12-25T09:55:05.067Z,1022.43
2016-12-25T10:00:04.782Z,1022.34
2016-12-25T10:05:04.529Z,1022.37
2016-12-25T10:10:05.178Z,1022.41
2016-12-25T10:15:05.310Z,1022.45
2016-12-25T10:20:05.174Z,1022.45
2016-12-25T10:25:04.636Z,1022.43
2016-12-25T10:30:04.890Z,1022.51
2016-12-25T10:35:04.898Z,1022.58
2016-12-25T10:40:04.915Z,1022.57
2016-12-25T10:45:04.801Z,1022.63
2016-12-25T10:50:05.018Z,1022.7
2016-12-25T10:55:04.669Z,1022.65
2016-12-25T11:00:05.156Z,1022.58
2016-12-25T11:05:04.435Z,1022.54
2016-12-25T11:10:04.993Z,1022.45
2016-12-25T11:15:05.145Z,1022.37
2016-12-25T11:20:05.071Z,1022.35
2016-12-25T11:25:04.932Z,1022.35
2016-12-25T11:30:05.080Z,1022.3
2016-12-25T11:35:04.594Z,1022.2
2016-12-25T11:40:05.204Z,1022.21
2016-12-25T11:45:04.990Z,1022.09
2016-12-25T11:50:04.908Z,1022
2016-12-25T11:55:04.773Z,1022.15
2016-12-25T12:00:04.706Z,1022.11
2016-12-25T12:05:04.308Z,1022.06
2016-12-25T12:10:05.123Z,1022.11
2016-12-25T12:15:04.739Z,1022.07
2016-12-25T12:20:04.218Z,1022.14
2016-12-25T12:25:04.619Z,1022.05
2016-12-25T12:30:05.317Z,1022.03
2016-12-25T12:35:04.656Z,1022.01
2016-12-25T12:40:04.675Z,1021.94
2016-12-25T12:45:04.846Z,1021.97
2016-12-25T12:50:05.378Z,1021.91
2016-12-25T12:55:04.639Z,1021.9
2016-12-25T13:00:04.496Z,1021.87
2016-12-25T13:05:04.676Z,1021.94
2016-12-25T13:10:04.673Z,1021.99
2016-12-25T13:15:05.015Z,1021.86
2016-12-25T13:20:05.297Z,1021.78
2016-12-25T13:25:04.524Z,1021.91
2016-12-25T13:30:04.542Z,1021.82
2016-12-25T13:35:04.670Z,1021.79
2016-12-25T13:40:05.129Z,1021.77
2016-12-25T13:45:04.745Z,1021.76
2016-12-25T13:50:04.790Z,1021.81
2016-12-25T13:55:04.196Z,1021.95
2016-12-25T14:00:05.135Z,1021.93
2016-12-25T14:05:05.070Z,1022.14
2016-12-25T14:10:05.056Z,1021.74
2016-12-25T14:15:04.497Z,1022.07
2016-12-25T14:20:04.810Z,1022.01
2016-12-25T14:25:05.095Z,1022.27
2016-12-25T14:30:04.675Z,1022.15
2016-12-25T14:35:04.567Z,1022.34
2016-12-25T14:40:05.048Z,1022.54
2016-12-25T14:45:04.392Z,1022.53
2016-12-25T14:50:05.123Z,1022.56
2016-12-25T14:55:04.674Z,1022.5
2016-12-25T15:00:04.218Z,1022.63
2016-12-25T15:05:04.853Z,1022.59
2016-12-25T15:10:05.326Z,1022.53
2016-12-25T15:15:04.398Z,1022.55
2016-12-25T15:20:04.964Z,1022.3
2016-12-25T15:25:04.557Z,1022.64
2016-12-25T15:30:04.464Z,1022.45
2016-12-25T15:35:04.896Z,1022.41
2016-12-25T15:40:04.607Z,1022.43
2016-12-25T15:45:04.732Z,1022.19
2016-12-25T15:50:04.280Z,1022.46
2016-12-25T15:55:04.374Z,1022.38
2016-12-25T16:00:04.688Z,1022.45
2016-12-25T16:05:04.712Z,1022.54
2016-12-25T16:10:04.981Z,1022.54
2016-12-25T16:15:05.002Z,1022.48
2016-12-25T16:20:04.850Z,1022.54
2016-12-25T16:25:04.237Z,1022.52
2016-12-25T16:30:04.941Z,1022.45
2016-12-25T16:35:04.297Z,1022.42
2016-12-25T16:40:04.748Z,1022.31
2016-12-25T16:45:05.208Z,1022.4
2016-12-25T16:50:04.625Z,1022.4
2016-12-25T16:55:04.628Z,1022.5
2016-12-25T17:00:05.253Z,1022.45
2016-12-25T17:05:04.796Z,1022.47
2016-12-25T17:10:05.099Z,1022.59
2016-12-25T17:15:04.471Z,1022.76
2016-12-25T17:20:04.559Z,1022.75
2016-12-25T17:25:04.410Z,1022.64
2016-12-25T17:30:04.693Z,1022.83
2016-12-25T17:35:04.739Z,1022.67
2016-12-25T17:40:04.687Z,1022.64
2016-12-25T17:45:04.587Z,1022.68
2016-12-25T17:50:05.233Z,1022.7
2016-12-25T17:55:04.678Z,1022.68
2016-12-25T18:00:05.307Z,1022.55
2016-12-25T18:05:04.454Z,1022.71
2016-12-25T18:10:04.467Z,1022.68
2016-12-25T18:15:05.068Z,1022.64
2016-12-25T18:20:05.194Z,1022.58
2016-12-25T18:25:04.449Z,1022.58
2016-12-25T18:30:05.076Z,1022.45
2016-12-25T18:35:05.215Z,1022.58
2016-12-25T18:40:04.419Z,1022.41
2016-12-25T18:45:04.588Z,1022.38
2016-12-25T18:50:04.945Z,1022.55
2016-12-25T18:55:04.605Z,1022.42
2016-12-25T19:00:04.645Z,1022.38
2016-12-25T19:05:04.446Z,1022.32
2016-12-25T19:10:04.476Z,1022.51
2016-12-25T19:15:04.604Z,1022.92
2016-12-25T19:20:04.591Z,1022.69
2016-12-25T19:25:05.314Z,1022.55
2016-12-25T19:30:04.785Z,1022.49
2016-12-25T19:35:05.188Z,1022.63
2016-12-25T19:40:04.753Z,1022.66
2016-12-25T19:45:05.014Z,1022.83
2016-12-25T19:50:04.787Z,1022.75
2016-12-25T19:55:05.107Z,1022.68
2016-12-25T20:00:04.194Z,1022.5
2016-12-25T20:05:04.881Z,1022.23
2016-12-25T20:10:04.555Z,1022.36
2016-12-25T20:15:04.802Z,1022.41
2016-12-25T20:20:05.443Z,1022.57
2016-12-25T20:25:04.965Z,1022.66
2016-12-25T20:30:05.074Z,1022.61
2016-12-25T20:35:04.828Z,1022.45
2016-12-25T20:40:04.581Z,1022.55
2016-12-25T20:45:05.031Z,1022.56
2016-12-25T20:50:05.006Z,1022.52
2016-12-25T20:55:05.014Z,1022.56
2016-12-25T21:00:04.339Z,1022.38
2016-12-25T21:05:04.637Z,1022.54
2016-12-25T21:10:05.219Z,1022.54
2016-12-25T21:15:05.372Z,1022.45
2016-12-25T21:20:05.319Z,1022.66
2016-12-25T21:25:04.271Z,1022.7
2016-12-25T21:30:04.971Z,1022.59
2016-12-25T21:35:04.600Z,1022.59
2016-12-25T21:40:04.943Z,1022.66
2016-12-25T21:45:05.121Z,1022.64
2016-12-25T21:50:04.581Z,1022.74
2016-12-25T21:55:04.986Z,1022.63
2016-12-25T22:00:04.916Z,1022.51
2016-12-25T22:05:04.926Z,1022.62
2016-12-25T22:10:05.145Z,1022.67
2016-12-25T22:15:04.552Z,1022.88
2016-12-25T22:20:04.836Z,1022.69
2016-12-25T22:25:04.722Z,1022.8
2016-12-25T22:30:04.688Z,1022.66
2016-12-25T22:35:04.402Z,1022.81
2016-12-25T22:40:04.878Z,1022.82
2016-12-25T22:45:04.836Z,1022.84
2016-12-25T22:50:04.859Z,1022.86
2016-12-25T22:55:04.945Z,1022.89
2016-12-25T23:00:04.968Z,1022.86
2016-12-25T23:05:05.148Z,1022.82
2016-12-25T23:10:04.380Z,1022.62
2016-12-25T23:15:04.544Z,1022.71
2016-12-25T23:20:04.560Z,1022.83
2016-12-25T23:25:04.787Z,1022.9
2016-12-25T23:30:05.087Z,1022.71
2016-12-25T23:35:05.177Z,1022.72
2016-12-25T23:40:04.464Z,1022.72
2016-12-25T23:45:04.569Z,1022.73
2016-12-25T23:50:05.220Z,1022.79
2016-12-25T23:55:05.112Z,1022.73
